sensor_id;sensor_type;location;lat;lon;timestamp;P1;durP1;ratioP1;P2;durP2;ratioP2
76256;SDS011;65074;50.436;8.672;2023-04-16T00:01:42;5.97;;;3.33;;
76256;SDS011;65074;50.436;8.672;2023-04-16T00:04:07;7.20;;;4.03;;
76256;SDS011;65074;50.436;8.672;2023-04-16T00:06:33;7.33;;;3.83;;
76256;SDS011;65074;50.436;8.672;2023-04-16T00:08:58;7.33;;;4.40;;
76256;SDS011;65074;50.436;8.672;2023-04-16T00:11:23;6.75;;;4.40;;
76256;SDS011;65074;50.436;8.672;2023-04-16T00:13:48;5.67;;;3.60;;
76256;SDS011;65074;50.436;8.672;2023-04-16T00:16:14;7.05;;;3.67;;
76256;SDS011;65074;50.436;8.672;2023-04-16T00:18:39;7.93;;;4.63;;
76256;SDS011;65074;50.436;8.672;2023-04-16T00:21:05;7.88;;;3.63;;
76256;SDS011;65074;50.436;8.672;2023-04-16T00:23:30;6.75;;;3.53;;
76256;SDS011;65074;50.436;8.672;2023-04-16T00:25:56;8.23;;;4.50;;
76256;SDS011;65074;50.436;8.672;2023-04-16T00:28:23;8.13;;;3.80;;
76256;SDS011;65074;50.436;8.672;2023-04-16T00:30:49;7.88;;;4.15;;
76256;SDS011;65074;50.436;8.672;2023-04-16T00:33:15;7.07;;;3.97;;
76256;SDS011;65074;50.436;8.672;2023-04-16T00:35:41;7.45;;;3.95;;
76256;SDS011;65074;50.436;8.672;2023-04-16T00:38:07;6.80;;;4.20;;
76256;SDS011;65074;50.436;8.672;2023-04-16T00:40:32;8.70;;;4.70;;
76256;SDS011;65074;50.436;8.672;2023-04-16T00:42:57;6.67;;;3.47;;
76256;SDS011;65074;50.436;8.672;2023-04-16T00:45:22;8.70;;;4.67;;
76256;SDS011;65074;50.436;8.672;2023-04-16T00:47:48;7.30;;;3.73;;
76256;SDS011;65074;50.436;8.672;2023-04-16T00:50:13;9.82;;;5.10;;
76256;SDS011;65074;50.436;8.672;2023-04-16T00:52:38;9.47;;;4.77;;
76256;SDS011;65074;50.436;8.672;2023-04-16T00:55:05;9.43;;;4.90;;
76256;SDS011;65074;50.436;8.672;2023-04-16T00:57:30;7.63;;;3.92;;
76256;SDS011;65074;50.436;8.672;2023-04-16T00:59:56;5.83;;;3.17;;
76256;SDS011;65074;50.436;8.672;2023-04-16T01:02:21;6.80;;;3.67;;
76256;SDS011;65074;50.436;8.672;2023-04-16T01:04:48;7.68;;;3.80;;
76256;SDS011;65074;50.436;8.672;2023-04-16T01:07:14;6.22;;;3.85;;
76256;SDS011;65074;50.436;8.672;2023-04-16T01:09:39;7.00;;;4.25;;
76256;SDS011;65074;50.436;8.672;2023-04-16T01:12:05;6.77;;;3.47;;
76256;SDS011;65074;50.436;8.672;2023-04-16T01:14:30;7.17;;;3.87;;
76256;SDS011;65074;50.436;8.672;2023-04-16T01:17:00;7.32;;;4.13;;
76256;SDS011;65074;50.436;8.672;2023-04-16T01:19:25;9.10;;;4.68;;
76256;SDS011;65074;50.436;8.672;2023-04-16T01:21:50;7.73;;;4.60;;
76256;SDS011;65074;50.436;8.672;2023-04-16T01:24:16;8.07;;;4.63;;
76256;SDS011;65074;50.436;8.672;2023-04-16T01:26:41;9.30;;;5.27;;
76256;SDS011;65074;50.436;8.672;2023-04-16T01:29:06;7.60;;;3.97;;
76256;SDS011;65074;50.436;8.672;2023-04-16T01:31:32;7.80;;;4.47;;
76256;SDS011;65074;50.436;8.672;2023-04-16T01:34:04;7.72;;;4.43;;
76256;SDS011;65074;50.436;8.672;2023-04-16T01:36:30;8.65;;;3.88;;
76256;SDS011;65074;50.436;8.672;2023-04-16T01:38:55;5.87;;;3.63;;
76256;SDS011;65074;50.436;8.672;2023-04-16T01:41:22;7.70;;;4.43;;
76256;SDS011;65074;50.436;8.672;2023-04-16T01:43:47;7.97;;;3.97;;
76256;SDS011;65074;50.436;8.672;2023-04-16T01:48:37;8.60;;;4.60;;
76256;SDS011;65074;50.436;8.672;2023-04-16T01:51:03;8.27;;;4.00;;
76256;SDS011;65074;50.436;8.672;2023-04-16T01:53:29;7.75;;;4.57;;
76256;SDS011;65074;50.436;8.672;2023-04-16T01:55:54;8.68;;;4.57;;
76256;SDS011;65074;50.436;8.672;2023-04-16T01:58:19;6.82;;;3.95;;
76256;SDS011;65074;50.436;8.672;2023-04-16T02:00:45;7.63;;;4.10;;
76256;SDS011;65074;50.436;8.672;2023-04-16T02:03:10;8.80;;;4.10;;
76256;SDS011;65074;50.436;8.672;2023-04-16T02:05:35;11.80;;;5.00;;
76256;SDS011;65074;50.436;8.672;2023-04-16T02:08:00;10.63;;;4.97;;
76256;SDS011;65074;50.436;8.672;2023-04-16T02:10:26;10.23;;;4.68;;
76256;SDS011;65074;50.436;8.672;2023-04-16T02:12:51;9.80;;;5.28;;
76256;SDS011;65074;50.436;8.672;2023-04-16T02:15:17;10.02;;;5.68;;
76256;SDS011;65074;50.436;8.672;2023-04-16T02:17:42;8.45;;;4.55;;
76256;SDS011;65074;50.436;8.672;2023-04-16T02:20:09;6.80;;;3.83;;
76256;SDS011;65074;50.436;8.672;2023-04-16T02:22:39;10.48;;;4.78;;
76256;SDS011;65074;50.436;8.672;2023-04-16T02:25:05;8.40;;;4.32;;
76256;SDS011;65074;50.436;8.672;2023-04-16T02:27:30;9.57;;;4.75;;
76256;SDS011;65074;50.436;8.672;2023-04-16T02:30:04;8.88;;;4.40;;
76256;SDS011;65074;50.436;8.672;2023-04-16T02:32:32;12.73;;;4.15;;
76256;SDS011;65074;50.436;8.672;2023-04-16T02:34:57;10.20;;;4.97;;
76256;SDS011;65074;50.436;8.672;2023-04-16T02:37:23;10.07;;;5.25;;
76256;SDS011;65074;50.436;8.672;2023-04-16T02:39:50;9.13;;;5.03;;
76256;SDS011;65074;50.436;8.672;2023-04-16T02:42:15;7.97;;;4.45;;
76256;SDS011;65074;50.436;8.672;2023-04-16T02:44:40;13.63;;;5.82;;
76256;SDS011;65074;50.436;8.672;2023-04-16T02:47:06;7.47;;;4.03;;
76256;SDS011;65074;50.436;8.672;2023-04-16T02:49:31;9.52;;;5.03;;
76256;SDS011;65074;50.436;8.672;2023-04-16T02:51:57;10.70;;;5.55;;
76256;SDS011;65074;50.436;8.672;2023-04-16T02:54:22;5.97;;;3.27;;
76256;SDS011;65074;50.436;8.672;2023-04-16T02:56:47;8.27;;;3.90;;
76256;SDS011;65074;50.436;8.672;2023-04-16T02:59:13;8.63;;;5.07;;
76256;SDS011;65074;50.436;8.672;2023-04-16T03:01:41;7.45;;;4.35;;
76256;SDS011;65074;50.436;8.672;2023-04-16T03:04:06;9.43;;;5.75;;
76256;SDS011;65074;50.436;8.672;2023-04-16T03:06:31;8.13;;;4.67;;
76256;SDS011;65074;50.436;8.672;2023-04-16T03:08:57;7.93;;;4.43;;
76256;SDS011;65074;50.436;8.672;2023-04-16T03:11:22;8.13;;;4.60;;
76256;SDS011;65074;50.436;8.672;2023-04-16T03:13:47;8.50;;;4.97;;
76256;SDS011;65074;50.436;8.672;2023-04-16T03:16:13;8.40;;;4.90;;
76256;SDS011;65074;50.436;8.672;2023-04-16T03:18:38;10.33;;;5.07;;
76256;SDS011;65074;50.436;8.672;2023-04-16T03:21:03;9.90;;;5.60;;
76256;SDS011;65074;50.436;8.672;2023-04-16T03:23:29;9.80;;;5.53;;
76256;SDS011;65074;50.436;8.672;2023-04-16T03:25:54;8.85;;;5.18;;
76256;SDS011;65074;50.436;8.672;2023-04-16T03:28:20;8.40;;;4.40;;
76256;SDS011;65074;50.436;8.672;2023-04-16T03:30:51;9.60;;;5.00;;
76256;SDS011;65074;50.436;8.672;2023-04-16T03:33:17;7.85;;;4.43;;
76256;SDS011;65074;50.436;8.672;2023-04-16T03:35:42;10.50;;;5.78;;
76256;SDS011;65074;50.436;8.672;2023-04-16T03:38:08;9.37;;;5.17;;
76256;SDS011;65074;50.436;8.672;2023-04-16T03:40:33;8.65;;;5.10;;
76256;SDS011;65074;50.436;8.672;2023-04-16T03:42:59;9.13;;;4.85;;
76256;SDS011;65074;50.436;8.672;2023-04-16T03:45:26;9.18;;;4.10;;
76256;SDS011;65074;50.436;8.672;2023-04-16T03:47:51;8.77;;;4.90;;
76256;SDS011;65074;50.436;8.672;2023-04-16T03:50:19;9.40;;;5.22;;
76256;SDS011;65074;50.436;8.672;2023-04-16T03:52:45;11.00;;;5.45;;
76256;SDS011;65074;50.436;8.672;2023-04-16T03:55:13;9.68;;;4.53;;
76256;SDS011;65074;50.436;8.672;2023-04-16T03:57:38;11.13;;;5.97;;
76256;SDS011;65074;50.436;8.672;2023-04-16T04:00:08;11.55;;;6.18;;
76256;SDS011;65074;50.436;8.672;2023-04-16T04:02:39;11.10;;;5.43;;
76256;SDS011;65074;50.436;8.672;2023-04-16T04:05:07;7.30;;;4.72;;
76256;SDS011;65074;50.436;8.672;2023-04-16T04:07:32;11.47;;;5.47;;
76256;SDS011;65074;50.436;8.672;2023-04-16T04:09:57;11.25;;;5.20;;
76256;SDS011;65074;50.436;8.672;2023-04-16T04:12:23;9.05;;;5.55;;
76256;SDS011;65074;50.436;8.672;2023-04-16T04:14:50;9.00;;;4.75;;
76256;SDS011;65074;50.436;8.672;2023-04-16T04:17:15;7.33;;;4.60;;
76256;SDS011;65074;50.436;8.672;2023-04-16T04:19:40;8.03;;;4.70;;
76256;SDS011;65074;50.436;8.672;2023-04-16T04:22:07;7.43;;;4.18;;
76256;SDS011;65074;50.436;8.672;2023-04-16T04:24:36;9.32;;;5.10;;
76256;SDS011;65074;50.436;8.672;2023-04-16T04:27:01;8.17;;;4.27;;
76256;SDS011;65074;50.436;8.672;2023-04-16T04:29:27;9.65;;;4.97;;
76256;SDS011;65074;50.436;8.672;2023-04-16T04:31:52;10.02;;;4.53;;
76256;SDS011;65074;50.436;8.672;2023-04-16T04:34:21;8.98;;;4.18;;
76256;SDS011;65074;50.436;8.672;2023-04-16T04:36:46;7.07;;;4.30;;
76256;SDS011;65074;50.436;8.672;2023-04-16T04:39:12;9.65;;;5.18;;
76256;SDS011;65074;50.436;8.672;2023-04-16T04:41:39;8.00;;;4.53;;
76256;SDS011;65074;50.436;8.672;2023-04-16T04:44:05;9.43;;;5.43;;
76256;SDS011;65074;50.436;8.672;2023-04-16T04:46:30;10.18;;;5.65;;
76256;SDS011;65074;50.436;8.672;2023-04-16T04:48:56;6.00;;;4.20;;
76256;SDS011;65074;50.436;8.672;2023-04-16T04:51:21;8.30;;;4.83;;
76256;SDS011;65074;50.436;8.672;2023-04-16T04:53:46;10.95;;;5.32;;
76256;SDS011;65074;50.436;8.672;2023-04-16T04:56:12;9.32;;;4.93;;
76256;SDS011;65074;50.436;8.672;2023-04-16T04:58:37;8.95;;;5.30;;
76256;SDS011;65074;50.436;8.672;2023-04-16T05:01:03;8.13;;;4.63;;
76256;SDS011;65074;50.436;8.672;2023-04-16T05:03:28;11.35;;;5.28;;
76256;SDS011;65074;50.436;8.672;2023-04-16T05:05:53;11.00;;;4.63;;
76256;SDS011;65074;50.436;8.672;2023-04-16T05:08:18;9.80;;;6.10;;
76256;SDS011;65074;50.436;8.672;2023-04-16T05:10:43;8.57;;;4.77;;
76256;SDS011;65074;50.436;8.672;2023-04-16T05:13:09;10.43;;;5.68;;
76256;SDS011;65074;50.436;8.672;2023-04-16T05:15:34;12.63;;;5.47;;
76256;SDS011;65074;50.436;8.672;2023-04-16T05:17:59;9.27;;;5.23;;
76256;SDS011;65074;50.436;8.672;2023-04-16T05:20:24;9.77;;;5.17;;
76256;SDS011;65074;50.436;8.672;2023-04-16T05:22:50;9.63;;;5.10;;
76256;SDS011;65074;50.436;8.672;2023-04-16T05:25:15;9.20;;;4.80;;
76256;SDS011;65074;50.436;8.672;2023-04-16T05:27:41;10.00;;;5.55;;
76256;SDS011;65074;50.436;8.672;2023-04-16T05:30:06;10.40;;;4.85;;
76256;SDS011;65074;50.436;8.672;2023-04-16T05:32:32;9.00;;;4.25;;
76256;SDS011;65074;50.436;8.672;2023-04-16T05:34:57;13.87;;;5.50;;
76256;SDS011;65074;50.436;8.672;2023-04-16T05:37:22;9.57;;;5.27;;
76256;SDS011;65074;50.436;8.672;2023-04-16T05:39:48;9.87;;;5.00;;
76256;SDS011;65074;50.436;8.672;2023-04-16T05:42:13;9.23;;;5.43;;
76256;SDS011;65074;50.436;8.672;2023-04-16T05:44:39;9.80;;;5.30;;
76256;SDS011;65074;50.436;8.672;2023-04-16T05:47:04;10.77;;;5.47;;
76256;SDS011;65074;50.436;8.672;2023-04-16T05:49:31;11.30;;;6.38;;
76256;SDS011;65074;50.436;8.672;2023-04-16T05:51:56;10.40;;;5.67;;
76256;SDS011;65074;50.436;8.672;2023-04-16T05:54:21;11.93;;;6.30;;
76256;SDS011;65074;50.436;8.672;2023-04-16T05:56:46;11.17;;;6.00;;
76256;SDS011;65074;50.436;8.672;2023-04-16T05:59:12;10.90;;;5.77;;
76256;SDS011;65074;50.436;8.672;2023-04-16T06:01:37;10.93;;;5.83;;
76256;SDS011;65074;50.436;8.672;2023-04-16T06:04:02;12.00;;;6.23;;
76256;SDS011;65074;50.436;8.672;2023-04-16T06:06:27;9.83;;;5.53;;
76256;SDS011;65074;50.436;8.672;2023-04-16T06:08:53;10.90;;;6.43;;
76256;SDS011;65074;50.436;8.672;2023-04-16T06:11:18;11.17;;;5.43;;
76256;SDS011;65074;50.436;8.672;2023-04-16T06:13:43;9.50;;;5.17;;
76256;SDS011;65074;50.436;8.672;2023-04-16T06:16:08;12.30;;;5.77;;
76256;SDS011;65074;50.436;8.672;2023-04-16T06:18:34;9.33;;;5.03;;
76256;SDS011;65074;50.436;8.672;2023-04-16T06:20:59;7.87;;;4.93;;
76256;SDS011;65074;50.436;8.672;2023-04-16T06:23:24;10.90;;;6.30;;
76256;SDS011;65074;50.436;8.672;2023-04-16T06:25:50;8.97;;;5.63;;
76256;SDS011;65074;50.436;8.672;2023-04-16T06:28:15;13.80;;;6.53;;
76256;SDS011;65074;50.436;8.672;2023-04-16T06:30:40;15.60;;;6.63;;
76256;SDS011;65074;50.436;8.672;2023-04-16T06:33:06;10.40;;;5.37;;
76256;SDS011;65074;50.436;8.672;2023-04-16T06:35:31;10.87;;;5.97;;
76256;SDS011;65074;50.436;8.672;2023-04-16T06:37:56;12.93;;;6.23;;
76256;SDS011;65074;50.436;8.672;2023-04-16T06:40:21;13.33;;;6.27;;
76256;SDS011;65074;50.436;8.672;2023-04-16T06:42:47;11.73;;;6.97;;
76256;SDS011;65074;50.436;8.672;2023-04-16T06:45:12;12.63;;;6.37;;
76256;SDS011;65074;50.436;8.672;2023-04-16T06:47:37;12.90;;;6.07;;
76256;SDS011;65074;50.436;8.672;2023-04-16T06:50:03;13.18;;;6.40;;
76256;SDS011;65074;50.436;8.672;2023-04-16T06:52:28;11.35;;;6.28;;
76256;SDS011;65074;50.436;8.672;2023-04-16T06:54:53;13.07;;;6.22;;
76256;SDS011;65074;50.436;8.672;2023-04-16T06:57:18;12.03;;;7.03;;
76256;SDS011;65074;50.436;8.672;2023-04-16T06:59:44;12.50;;;6.63;;
76256;SDS011;65074;50.436;8.672;2023-04-16T07:02:09;12.23;;;6.53;;
76256;SDS011;65074;50.436;8.672;2023-04-16T07:04:34;12.40;;;6.73;;
76256;SDS011;65074;50.436;8.672;2023-04-16T07:07:00;12.10;;;6.20;;
76256;SDS011;65074;50.436;8.672;2023-04-16T07:09:26;11.60;;;5.40;;
76256;SDS011;65074;50.436;8.672;2023-04-16T07:11:51;13.80;;;8.63;;
76256;SDS011;65074;50.436;8.672;2023-04-16T07:14:16;10.88;;;5.97;;
76256;SDS011;65074;50.436;8.672;2023-04-16T07:16:42;12.15;;;6.57;;
76256;SDS011;65074;50.436;8.672;2023-04-16T07:19:07;10.97;;;5.33;;
76256;SDS011;65074;50.436;8.672;2023-04-16T07:21:32;11.13;;;5.77;;
76256;SDS011;65074;50.436;8.672;2023-04-16T07:23:57;12.63;;;6.57;;
76256;SDS011;65074;50.436;8.672;2023-04-16T07:26:23;13.10;;;6.20;;
76256;SDS011;65074;50.436;8.672;2023-04-16T07:28:48;10.47;;;5.87;;
76256;SDS011;65074;50.436;8.672;2023-04-16T07:31:13;11.97;;;5.87;;
76256;SDS011;65074;50.436;8.672;2023-04-16T07:33:38;11.93;;;6.43;;
76256;SDS011;65074;50.436;8.672;2023-04-16T07:36:03;11.63;;;6.43;;
76256;SDS011;65074;50.436;8.672;2023-04-16T07:38:29;13.20;;;6.53;;
76256;SDS011;65074;50.436;8.672;2023-04-16T07:40:54;8.83;;;5.07;;
76256;SDS011;65074;50.436;8.672;2023-04-16T07:43:19;10.55;;;5.28;;
76256;SDS011;65074;50.436;8.672;2023-04-16T07:45:45;7.20;;;4.60;;
76256;SDS011;65074;50.436;8.672;2023-04-16T07:48:10;10.23;;;5.93;;
76256;SDS011;65074;50.436;8.672;2023-04-16T07:50:35;11.70;;;6.63;;
76256;SDS011;65074;50.436;8.672;2023-04-16T07:53:00;13.38;;;7.05;;
76256;SDS011;65074;50.436;8.672;2023-04-16T07:55:26;8.67;;;5.17;;
76256;SDS011;65074;50.436;8.672;2023-04-16T07:57:51;12.93;;;5.80;;
76256;SDS011;65074;50.436;8.672;2023-04-16T08:00:16;12.93;;;6.97;;
76256;SDS011;65074;50.436;8.672;2023-04-16T08:02:41;12.75;;;6.55;;
76256;SDS011;65074;50.436;8.672;2023-04-16T08:05:07;10.13;;;5.70;;
76256;SDS011;65074;50.436;8.672;2023-04-16T08:07:32;10.30;;;4.40;;
76256;SDS011;65074;50.436;8.672;2023-04-16T08:09:57;12.07;;;6.30;;
76256;SDS011;65074;50.436;8.672;2023-04-16T08:12:23;10.40;;;5.97;;
76256;SDS011;65074;50.436;8.672;2023-04-16T08:14:48;9.93;;;5.20;;
76256;SDS011;65074;50.436;8.672;2023-04-16T08:17:14;10.50;;;5.80;;
76256;SDS011;65074;50.436;8.672;2023-04-16T08:19:39;12.35;;;7.45;;
76256;SDS011;65074;50.436;8.672;2023-04-16T08:22:05;11.05;;;5.85;;
76256;SDS011;65074;50.436;8.672;2023-04-16T08:24:30;10.82;;;6.43;;
76256;SDS011;65074;50.436;8.672;2023-04-16T08:26:55;7.47;;;4.47;;
76256;SDS011;65074;50.436;8.672;2023-04-16T08:29:20;13.00;;;6.10;;
76256;SDS011;65074;50.436;8.672;2023-04-16T08:31:49;8.63;;;5.60;;
76256;SDS011;65074;50.436;8.672;2023-04-16T08:34:14;10.48;;;6.30;;
76256;SDS011;65074;50.436;8.672;2023-04-16T08:36:39;10.52;;;5.03;;
76256;SDS011;65074;50.436;8.672;2023-04-16T08:39:05;10.68;;;6.50;;
76256;SDS011;65074;50.436;8.672;2023-04-16T08:41:31;9.37;;;5.83;;
76256;SDS011;65074;50.436;8.672;2023-04-16T08:43:56;12.45;;;6.85;;
76256;SDS011;65074;50.436;8.672;2023-04-16T08:46:24;10.60;;;6.78;;
76256;SDS011;65074;50.436;8.672;2023-04-16T08:48:51;10.52;;;6.10;;
76256;SDS011;65074;50.436;8.672;2023-04-16T08:51:17;13.43;;;7.13;;
76256;SDS011;65074;50.436;8.672;2023-04-16T08:53:52;8.45;;;5.18;;
76256;SDS011;65074;50.436;8.672;2023-04-16T08:58:44;10.65;;;6.03;;
76256;SDS011;65074;50.436;8.672;2023-04-16T09:01:10;7.85;;;5.13;;
76256;SDS011;65074;50.436;8.672;2023-04-16T09:03:36;10.13;;;5.30;;
76256;SDS011;65074;50.436;8.672;2023-04-16T09:06:01;10.13;;;5.35;;
76256;SDS011;65074;50.436;8.672;2023-04-16T09:08:28;8.75;;;5.85;;
76256;SDS011;65074;50.436;8.672;2023-04-16T09:10:54;12.50;;;6.88;;
76256;SDS011;65074;50.436;8.672;2023-04-16T09:13:19;12.18;;;6.55;;
76256;SDS011;65074;50.436;8.672;2023-04-16T09:15:46;8.68;;;5.35;;
76256;SDS011;65074;50.436;8.672;2023-04-16T09:18:11;8.20;;;5.05;;
76256;SDS011;65074;50.436;8.672;2023-04-16T09:20:37;11.73;;;5.93;;
76256;SDS011;65074;50.436;8.672;2023-04-16T09:23:02;9.20;;;5.28;;
76256;SDS011;65074;50.436;8.672;2023-04-16T09:25:31;9.98;;;5.93;;
76256;SDS011;65074;50.436;8.672;2023-04-16T09:27:56;11.07;;;5.70;;
76256;SDS011;65074;50.436;8.672;2023-04-16T09:30:22;10.70;;;5.87;;
76256;SDS011;65074;50.436;8.672;2023-04-16T09:32:48;10.57;;;5.63;;
76256;SDS011;65074;50.436;8.672;2023-04-16T09:35:14;8.90;;;5.13;;
76256;SDS011;65074;50.436;8.672;2023-04-16T09:37:40;10.40;;;6.50;;
76256;SDS011;65074;50.436;8.672;2023-04-16T09:40:06;10.97;;;6.00;;
76256;SDS011;65074;50.436;8.672;2023-04-16T09:42:32;10.00;;;5.57;;
76256;SDS011;65074;50.436;8.672;2023-04-16T09:44:58;9.30;;;6.13;;
76256;SDS011;65074;50.436;8.672;2023-04-16T09:47:24;12.48;;;6.55;;
76256;SDS011;65074;50.436;8.672;2023-04-16T09:49:50;10.80;;;5.97;;
76256;SDS011;65074;50.436;8.672;2023-04-16T09:52:17;11.35;;;6.10;;
76256;SDS011;65074;50.436;8.672;2023-04-16T09:54:49;9.15;;;4.53;;
76256;SDS011;65074;50.436;8.672;2023-04-16T09:57:21;10.15;;;5.68;;
76256;SDS011;65074;50.436;8.672;2023-04-16T09:59:47;10.48;;;5.82;;
76256;SDS011;65074;50.436;8.672;2023-04-16T10:02:12;10.38;;;6.07;;
76256;SDS011;65074;50.436;8.672;2023-04-16T10:05:12;8.73;;;4.73;;
76256;SDS011;65074;50.436;8.672;2023-04-16T10:07:33;10.70;;;5.75;;
76256;SDS011;65074;50.436;8.672;2023-04-16T10:09:59;11.23;;;6.53;;
76256;SDS011;65074;50.436;8.672;2023-04-16T10:12:24;10.27;;;6.57;;
76256;SDS011;65074;50.436;8.672;2023-04-16T10:14:49;10.53;;;5.80;;
76256;SDS011;65074;50.436;8.672;2023-04-16T10:17:15;10.70;;;5.40;;
76256;SDS011;65074;50.436;8.672;2023-04-16T10:19:40;9.25;;;5.40;;
76256;SDS011;65074;50.436;8.672;2023-04-16T10:22:06;11.20;;;5.45;;
76256;SDS011;65074;50.436;8.672;2023-04-16T10:24:32;12.55;;;6.35;;
76256;SDS011;65074;50.436;8.672;2023-04-16T10:26:57;10.00;;;6.20;;
76256;SDS011;65074;50.436;8.672;2023-04-16T10:29:24;11.05;;;6.55;;
76256;SDS011;65074;50.436;8.672;2023-04-16T10:31:50;8.70;;;5.32;;
76256;SDS011;65074;50.436;8.672;2023-04-16T10:34:15;9.65;;;5.53;;
76256;SDS011;65074;50.436;8.672;2023-04-16T10:36:41;10.20;;;5.93;;
76256;SDS011;65074;50.436;8.672;2023-04-16T10:39:10;7.83;;;5.60;;
76256;SDS011;65074;50.436;8.672;2023-04-16T10:44:08;12.03;;;6.03;;
76256;SDS011;65074;50.436;8.672;2023-04-16T10:49:15;11.63;;;6.38;;
76256;SDS011;65074;50.436;8.672;2023-04-16T10:51:50;11.35;;;6.18;;
76256;SDS011;65074;50.436;8.672;2023-04-16T10:56:42;11.70;;;6.37;;
76256;SDS011;65074;50.436;8.672;2023-04-16T10:59:09;12.57;;;6.93;;
76256;SDS011;65074;50.436;8.672;2023-04-16T11:01:35;11.18;;;6.43;;
76256;SDS011;65074;50.436;8.672;2023-04-16T11:04:24;10.63;;;5.60;;
76256;SDS011;65074;50.436;8.672;2023-04-16T11:07:05;12.70;;;6.70;;
76256;SDS011;65074;50.436;8.672;2023-04-16T11:09:43;10.02;;;6.00;;
76256;SDS011;65074;50.436;8.672;2023-04-16T11:12:14;10.88;;;6.25;;
76256;SDS011;65074;50.436;8.672;2023-04-16T11:14:40;10.90;;;6.22;;
76256;SDS011;65074;50.436;8.672;2023-04-16T11:17:06;12.65;;;6.65;;
76256;SDS011;65074;50.436;8.672;2023-04-16T11:19:31;10.15;;;5.57;;
76256;SDS011;65074;50.436;8.672;2023-04-16T11:21:57;11.55;;;6.65;;
76256;SDS011;65074;50.436;8.672;2023-04-16T11:24:22;12.85;;;7.05;;
76256;SDS011;65074;50.436;8.672;2023-04-16T11:26:49;12.03;;;6.57;;
76256;SDS011;65074;50.436;8.672;2023-04-16T11:29:15;12.05;;;7.50;;
76256;SDS011;65074;50.436;8.672;2023-04-16T11:31:40;11.20;;;6.60;;
76256;SDS011;65074;50.436;8.672;2023-04-16T11:34:06;12.00;;;7.17;;
76256;SDS011;65074;50.436;8.672;2023-04-16T11:36:45;10.93;;;7.38;;
76256;SDS011;65074;50.436;8.672;2023-04-16T11:39:10;11.23;;;7.68;;
76256;SDS011;65074;50.436;8.672;2023-04-16T11:41:41;13.53;;;7.80;;
76256;SDS011;65074;50.436;8.672;2023-04-16T11:44:16;10.48;;;7.05;;
76256;SDS011;65074;50.436;8.672;2023-04-16T11:46:42;15.07;;;8.02;;
76256;SDS011;65074;50.436;8.672;2023-04-16T11:49:07;15.67;;;8.60;;
76256;SDS011;65074;50.436;8.672;2023-04-16T11:51:37;13.98;;;9.57;;
76256;SDS011;65074;50.436;8.672;2023-04-16T11:54:03;15.35;;;8.85;;
76256;SDS011;65074;50.436;8.672;2023-04-16T11:56:28;13.80;;;8.13;;
76256;SDS011;65074;50.436;8.672;2023-04-16T11:59:07;13.35;;;8.10;;
76256;SDS011;65074;50.436;8.672;2023-04-16T12:01:34;12.98;;;8.20;;
76256;SDS011;65074;50.436;8.672;2023-04-16T12:04:02;14.02;;;8.05;;
76256;SDS011;65074;50.436;8.672;2023-04-16T12:06:28;18.70;;;9.68;;
76256;SDS011;65074;50.436;8.672;2023-04-16T12:08:53;16.27;;;8.87;;
76256;SDS011;65074;50.436;8.672;2023-04-16T12:11:18;12.48;;;8.00;;
76256;SDS011;65074;50.436;8.672;2023-04-16T12:16:28;12.80;;;8.63;;
76256;SDS011;65074;50.436;8.672;2023-04-16T12:19:00;12.70;;;7.90;;
76256;SDS011;65074;50.436;8.672;2023-04-16T12:21:40;12.25;;;7.88;;
76256;SDS011;65074;50.436;8.672;2023-04-16T12:24:06;11.65;;;7.25;;
76256;SDS011;65074;50.436;8.672;2023-04-16T12:26:50;12.10;;;7.82;;
76256;SDS011;65074;50.436;8.672;2023-04-16T12:29:20;14.30;;;8.15;;
76256;SDS011;65074;50.436;8.672;2023-04-16T12:31:46;12.65;;;7.50;;
76256;SDS011;65074;50.436;8.672;2023-04-16T12:34:12;11.60;;;7.18;;
76256;SDS011;65074;50.436;8.672;2023-04-16T12:36:39;12.05;;;7.45;;
76256;SDS011;65074;50.436;8.672;2023-04-16T12:39:04;10.45;;;6.60;;
76256;SDS011;65074;50.436;8.672;2023-04-16T12:41:30;11.23;;;7.65;;
76256;SDS011;65074;50.436;8.672;2023-04-16T12:44:28;9.68;;;7.32;;
76256;SDS011;65074;50.436;8.672;2023-04-16T12:46:47;10.13;;;6.85;;
76256;SDS011;65074;50.436;8.672;2023-04-16T12:49:12;12.10;;;6.73;;
76256;SDS011;65074;50.436;8.672;2023-04-16T12:51:37;11.47;;;6.73;;
76256;SDS011;65074;50.436;8.672;2023-04-16T12:54:04;9.82;;;6.60;;
76256;SDS011;65074;50.436;8.672;2023-04-16T12:56:29;10.85;;;6.72;;
76256;SDS011;65074;50.436;8.672;2023-04-16T12:58:54;8.77;;;5.95;;
76256;SDS011;65074;50.436;8.672;2023-04-16T13:01:20;9.25;;;5.57;;
76256;SDS011;65074;50.436;8.672;2023-04-16T13:03:45;7.53;;;5.30;;
76256;SDS011;65074;50.436;8.672;2023-04-16T13:06:11;7.93;;;5.53;;
76256;SDS011;65074;50.436;8.672;2023-04-16T13:08:36;10.23;;;6.15;;
76256;SDS011;65074;50.436;8.672;2023-04-16T13:11:02;7.80;;;5.53;;
76256;SDS011;65074;50.436;8.672;2023-04-16T13:13:27;8.00;;;5.70;;
76256;SDS011;65074;50.436;8.672;2023-04-16T13:15:53;7.43;;;5.25;;
76256;SDS011;65074;50.436;8.672;2023-04-16T13:18:18;5.50;;;3.97;;
76256;SDS011;65074;50.436;8.672;2023-04-16T13:20:43;8.43;;;5.33;;
76256;SDS011;65074;50.436;8.672;2023-04-16T13:23:08;8.33;;;5.57;;
76256;SDS011;65074;50.436;8.672;2023-04-16T13:25:33;9.03;;;5.43;;
76256;SDS011;65074;50.436;8.672;2023-04-16T13:27:59;9.23;;;5.00;;
76256;SDS011;65074;50.436;8.672;2023-04-16T13:30:24;8.48;;;5.20;;
76256;SDS011;65074;50.436;8.672;2023-04-16T13:32:50;9.40;;;5.07;;
76256;SDS011;65074;50.436;8.672;2023-04-16T13:35:15;7.97;;;4.30;;
76256;SDS011;65074;50.436;8.672;2023-04-16T13:37:40;7.60;;;5.13;;
76256;SDS011;65074;50.436;8.672;2023-04-16T13:40:05;8.63;;;5.77;;
76256;SDS011;65074;50.436;8.672;2023-04-16T13:42:31;7.57;;;4.70;;
76256;SDS011;65074;50.436;8.672;2023-04-16T13:44:56;10.13;;;6.50;;
76256;SDS011;65074;50.436;8.672;2023-04-16T13:47:22;8.40;;;5.00;;
76256;SDS011;65074;50.436;8.672;2023-04-16T13:49:47;8.13;;;4.97;;
76256;SDS011;65074;50.436;8.672;2023-04-16T13:52:13;8.30;;;4.67;;
76256;SDS011;65074;50.436;8.672;2023-04-16T13:54:38;10.17;;;4.70;;
76256;SDS011;65074;50.436;8.672;2023-04-16T13:57:04;8.75;;;4.65;;
76256;SDS011;65074;50.436;8.672;2023-04-16T13:59:30;9.02;;;4.45;;
76256;SDS011;65074;50.436;8.672;2023-04-16T14:01:55;6.70;;;3.93;;
76256;SDS011;65074;50.436;8.672;2023-04-16T14:04:21;7.07;;;4.57;;
76256;SDS011;65074;50.436;8.672;2023-04-16T14:06:47;6.80;;;4.15;;
76256;SDS011;65074;50.436;8.672;2023-04-16T14:09:13;7.15;;;4.30;;
76256;SDS011;65074;50.436;8.672;2023-04-16T14:11:38;9.53;;;5.20;;
76256;SDS011;65074;50.436;8.672;2023-04-16T14:14:03;7.93;;;5.27;;
76256;SDS011;65074;50.436;8.672;2023-04-16T14:16:28;7.83;;;4.57;;
76256;SDS011;65074;50.436;8.672;2023-04-16T14:18:54;7.63;;;4.32;;
76256;SDS011;65074;50.436;8.672;2023-04-16T14:21:19;5.50;;;3.73;;
76256;SDS011;65074;50.436;8.672;2023-04-16T14:23:44;5.93;;;4.10;;
76256;SDS011;65074;50.436;8.672;2023-04-16T14:26:10;7.07;;;4.50;;
76256;SDS011;65074;50.436;8.672;2023-04-16T14:28:35;7.57;;;4.63;;
76256;SDS011;65074;50.436;8.672;2023-04-16T14:31:01;12.20;;;4.90;;
76256;SDS011;65074;50.436;8.672;2023-04-16T14:33:26;9.50;;;4.70;;
76256;SDS011;65074;50.436;8.672;2023-04-16T14:35:51;9.00;;;5.30;;
76256;SDS011;65074;50.436;8.672;2023-04-16T14:38:17;8.10;;;4.53;;
76256;SDS011;65074;50.436;8.672;2023-04-16T14:40:42;9.17;;;4.53;;
76256;SDS011;65074;50.436;8.672;2023-04-16T14:43:07;7.50;;;4.67;;
76256;SDS011;65074;50.436;8.672;2023-04-16T14:45:32;6.47;;;4.40;;
76256;SDS011;65074;50.436;8.672;2023-04-16T14:47:57;6.90;;;3.97;;
76256;SDS011;65074;50.436;8.672;2023-04-16T14:50:23;6.00;;;3.83;;